Fallon, Nevada
Current Conditions -  °F | °C
As of 11:56 PM on Wednesday 28 Jan 2015 (Local Time) from KNFL Reporting Station
Broken Clouds Broken Clouds  
Wind Chill: 38°   Ceiling: 8500
Heat Index: 38°   Visibility: 10mi
Dew Point: 35°   Wind: 0mph
Humidity: 89%   Direction: NA
Pressure: 30.29"   Gusts: NA
Location:  39.47°N, 118.77°W
Report Text: KNFL 290756Z AUTO 00000KT 10SM BKN085 03/02 A3029 RMK AO2 SLP217 T00330017 401220000
Loading
Personal Weather Stations






























Interactive Weather Map New forecast layout! Learn more

10-Day Weather Forecast

Advertisements
Track Severe Weather on mobile